sensor_id;sensor_type;location;lat;lon;timestamp;pressure;altitude;pressure_sealevel;temperature;humidity
54038;BME280;39954;48.844;9.726;2024-02-04T00:00:32;97152.84;;;4.04;100.00
54038;BME280;39954;48.844;9.726;2024-02-04T00:01:38;97155.41;;;4.03;100.00
54038;BME280;39954;48.844;9.726;2024-02-04T00:02:40;97152.00;;;4.04;100.00
54038;BME280;39954;48.844;9.726;2024-02-04T00:03:45;97152.88;;;4.00;100.00
54038;BME280;39954;48.844;9.726;2024-02-04T00:04:47;97154.66;;;3.98;100.00
54038;BME280;39954;48.844;9.726;2024-02-04T00:05:52;97146.94;;;3.98;100.00
54038;BME280;39954;48.844;9.726;2024-02-04T00:06:55;97144.38;;;3.95;100.00
54038;BME280;39954;48.844;9.726;2024-02-04T00:08:00;97139.22;;;3.96;100.00
54038;BME280;39954;48.844;9.726;2024-02-04T00:09:04;97139.22;;;3.96;100.00
54038;BME280;39954;48.844;9.726;2024-02-04T00:10:10;97132.41;;;3.94;100.00
54038;BME280;39954;48.844;9.726;2024-02-04T00:11:13;97129.00;;;3.93;100.00
54038;BME280;39954;48.844;9.726;2024-02-04T00:12:18;97130.72;;;3.91;100.00
54038;BME280;39954;48.844;9.726;2024-02-04T00:13:21;97129.94;;;3.88;100.00
54038;BME280;39954;48.844;9.726;2024-02-04T00:14:25;97126.38;;;3.95;100.00
54038;BME280;39954;48.844;9.726;2024-02-04T00:15:28;97128.94;;;3.98;100.00
54038;BME280;39954;48.844;9.726;2024-02-04T00:16:32;97132.31;;;4.00;100.00
54038;BME280;39954;48.844;9.726;2024-02-04T00:17:35;97132.34;;;3.97;100.00
54038;BME280;39954;48.844;9.726;2024-02-04T00:18:40;97136.66;;;3.98;100.00
54038;BME280;39954;48.844;9.726;2024-02-04T00:19:42;97126.38;;;3.98;100.00
54038;BME280;39954;48.844;9.726;2024-02-04T00:20:47;97123.91;;;3.90;100.00
54038;BME280;39954;48.844;9.726;2024-02-04T00:21:49;97124.78;;;3.88;100.00
54038;BME280;39954;48.844;9.726;2024-02-04T00:22:54;97121.31;;;3.89;100.00
54038;BME280;39954;48.844;9.726;2024-02-04T00:23:57;97117.03;;;3.91;100.00
54038;BME280;39954;48.844;9.726;2024-02-04T00:25:05;97109.31;;;3.91;100.00
54038;BME280;39954;48.844;9.726;2024-02-04T00:26:08;97115.34;;;3.88;100.00
54038;BME280;39954;48.844;9.726;2024-02-04T00:27:13;97108.50;;;3.87;100.00
54038;BME280;39954;48.844;9.726;2024-02-04T00:28:15;97109.41;;;3.85;100.00
54038;BME280;39954;48.844;9.726;2024-02-04T00:29:20;97108.56;;;3.83;100.00
54038;BME280;39954;48.844;9.726;2024-02-04T00:30:22;97115.44;;;3.80;100.00
54038;BME280;39954;48.844;9.726;2024-02-04T00:31:28;97114.63;;;3.78;100.00
54038;BME280;39954;48.844;9.726;2024-02-04T00:32:30;97119.72;;;3.81;100.00
54038;BME280;39954;48.844;9.726;2024-02-04T00:33:33;97121.38;;;3.86;100.00
54038;BME280;39954;48.844;9.726;2024-02-04T00:34:38;97112.03;;;3.80;100.00
54038;BME280;39954;48.844;9.726;2024-02-04T00:35:40;97106.88;;;3.81;100.00
54038;BME280;39954;48.844;9.726;2024-02-04T00:36:45;97107.75;;;3.79;100.00
54038;BME280;39954;48.844;9.726;2024-02-04T00:37:47;97111.19;;;3.79;100.00
54038;BME280;39954;48.844;9.726;2024-02-04T00:38:52;97110.38;;;3.76;100.00
54038;BME280;39954;48.844;9.726;2024-02-04T00:39:54;97105.28;;;3.73;100.00
54038;BME280;39954;48.844;9.726;2024-02-04T00:41:02;97105.28;;;3.71;100.00
54038;BME280;39954;48.844;9.726;2024-02-04T00:42:05;97096.72;;;3.69;100.00
54038;BME280;39954;48.844;9.726;2024-02-04T00:43:10;97090.78;;;3.67;100.00
54038;BME280;39954;48.844;9.726;2024-02-04T00:44:12;97094.22;;;3.66;100.00
54038;BME280;39954;48.844;9.726;2024-02-04T00:45:17;97101.13;;;3.64;100.00
54038;BME280;39954;48.844;9.726;2024-02-04T00:46:19;97106.16;;;3.70;100.00
54038;BME280;39954;48.844;9.726;2024-02-04T00:47:24;97106.19;;;3.69;100.00
54038;BME280;39954;48.844;9.726;2024-02-04T00:48:27;97107.81;;;3.74;100.00
54038;BME280;39954;48.844;9.726;2024-02-04T00:49:32;97106.22;;;3.67;100.00
54038;BME280;39954;48.844;9.726;2024-02-04T00:50:35;97109.63;;;3.66;100.00
54038;BME280;39954;48.844;9.726;2024-02-04T00:51:40;97109.59;;;3.69;100.00
54038;BME280;39954;48.844;9.726;2024-02-04T00:52:42;97111.31;;;3.70;100.00
54038;BME280;39954;48.844;9.726;2024-02-04T00:53:47;97112.16;;;3.71;100.00
54038;BME280;39954;48.844;9.726;2024-02-04T00:54:49;97115.56;;;3.71;100.00
54038;BME280;39954;48.844;9.726;2024-02-04T00:55:54;97120.72;;;3.71;100.00
54038;BME280;39954;48.844;9.726;2024-02-04T00:56:58;97116.38;;;3.75;100.00
54038;BME280;39954;48.844;9.726;2024-02-04T00:58:03;97113.84;;;3.72;100.00
54038;BME280;39954;48.844;9.726;2024-02-04T00:59:06;97116.44;;;3.70;100.00
54038;BME280;39954;48.844;9.726;2024-02-04T01:00:11;97123.19;;;3.77;100.00
54038;BME280;39954;48.844;9.726;2024-02-04T01:01:14;97129.19;;;3.78;100.00
54038;BME280;39954;48.844;9.726;2024-02-04T01:02:21;97127.50;;;3.77;100.00
54038;BME280;39954;48.844;9.726;2024-02-04T01:03:23;97124.91;;;3.77;100.00
54038;BME280;39954;48.844;9.726;2024-02-04T01:04:26;97130.09;;;3.75;100.00
54038;BME280;39954;48.844;9.726;2024-02-04T01:05:31;97128.38;;;3.76;100.00
54038;BME280;39954;48.844;9.726;2024-02-04T01:06:33;97127.50;;;3.78;100.00
54038;BME280;39954;48.844;9.726;2024-02-04T01:07:57;97131.78;;;3.76;100.00
54038;BME280;39954;48.844;9.726;2024-02-04T01:08:59;97124.13;;;3.73;100.00
54038;BME280;39954;48.844;9.726;2024-02-04T01:10:05;97124.03;;;3.78;100.00
54038;BME280;39954;48.844;9.726;2024-02-04T01:11:10;97121.50;;;3.75;100.00
54038;BME280;39954;48.844;9.726;2024-02-04T01:12:15;97117.16;;;3.80;100.00
54038;BME280;39954;48.844;9.726;2024-02-04T01:13:20;97113.75;;;3.81;100.00
54038;BME280;39954;48.844;9.726;2024-02-04T01:14:23;97111.22;;;3.76;100.00
54038;BME280;39954;48.844;9.726;2024-02-04T01:15:27;97112.88;;;3.80;100.00
54038;BME280;39954;48.844;9.726;2024-02-04T01:16:30;97114.53;;;3.85;100.00
54038;BME280;39954;48.844;9.726;2024-02-04T01:17:34;97112.00;;;3.81;100.00
54038;BME280;39954;48.844;9.726;2024-02-04T01:18:37;97120.53;;;3.84;100.00
54038;BME280;39954;48.844;9.726;2024-02-04T01:19:43;97116.31;;;3.81;100.00
54038;BME280;39954;48.844;9.726;2024-02-04T01:20:45;97118.91;;;3.78;100.00
54038;BME280;39954;48.844;9.726;2024-02-04T01:21:50;97117.22;;;3.77;100.00
54038;BME280;39954;48.844;9.726;2024-02-04T01:22:52;97110.38;;;3.74;100.00
54038;BME280;39954;48.844;9.726;2024-02-04T01:23:57;97118.09;;;3.74;100.00
54038;BME280;39954;48.844;9.726;2024-02-04T01:25:00;97113.75;;;3.81;100.00
54038;BME280;39954;48.844;9.726;2024-02-04T01:26:05;97115.38;;;3.85;100.00
54038;BME280;39954;48.844;9.726;2024-02-04T01:27:07;97112.81;;;3.84;100.00
54038;BME280;39954;48.844;9.726;2024-02-04T01:28:14;97108.56;;;3.83;100.00
54038;BME280;39954;48.844;9.726;2024-02-04T01:29:17;97113.69;;;3.83;100.00
54038;BME280;39954;48.844;9.726;2024-02-04T01:30:21;97122.22;;;3.86;100.00
54038;BME280;39954;48.844;9.726;2024-02-04T01:31:24;97115.38;;;3.87;100.00
54038;BME280;39954;48.844;9.726;2024-02-04T01:32:28;97117.91;;;3.90;100.00
54038;BME280;39954;48.844;9.726;2024-02-04T01:33:31;97111.88;;;3.91;100.00
54038;BME280;39954;48.844;9.726;2024-02-04T01:34:33;97120.28;;;4.00;100.00
54038;BME280;39954;48.844;9.726;2024-02-04T01:35:38;97107.38;;;4.05;100.00
54038;BME280;39954;48.844;9.726;2024-02-04T01:36:40;97109.94;;;4.05;100.00
54038;BME280;39954;48.844;9.726;2024-02-04T01:37:45;97101.38;;;4.04;100.00
54038;BME280;39954;48.844;9.726;2024-02-04T01:38:50;97097.13;;;4.02;100.00
54038;BME280;39954;48.844;9.726;2024-02-04T01:39:55;97084.28;;;4.02;100.00
54038;BME280;39954;48.844;9.726;2024-02-04T01:40:57;97085.16;;;4.01;100.00
54038;BME280;39954;48.844;9.726;2024-02-04T01:42:02;97081.66;;;4.05;100.00
54038;BME280;39954;48.844;9.726;2024-02-04T01:43:05;97081.72;;;4.02;100.00
54038;BME280;39954;48.844;9.726;2024-02-04T01:44:12;97080.06;;;3.98;100.00
54038;BME280;39954;48.844;9.726;2024-02-04T01:45:15;97072.34;;;3.98;100.00
54038;BME280;39954;48.844;9.726;2024-02-04T01:46:18;97076.66;;;3.96;100.00
54038;BME280;39954;48.844;9.726;2024-02-04T01:47:23;97081.75;;;3.97;100.00
54038;BME280;39954;48.844;9.726;2024-02-04T01:48:25;97076.66;;;3.94;100.00
54038;BME280;39954;48.844;9.726;2024-02-04T01:49:30;97081.75;;;3.99;100.00
54038;BME280;39954;48.844;9.726;2024-02-04T01:50:33;97071.47;;;3.97;100.00
54038;BME280;39954;48.844;9.726;2024-02-04T01:51:38;97074.94;;;3.95;100.00
54038;BME280;39954;48.844;9.726;2024-02-04T01:52:40;97074.94;;;3.98;100.00
54038;BME280;39954;48.844;9.726;2024-02-04T01:53:47;97078.34;;;3.97;100.00
54038;BME280;39954;48.844;9.726;2024-02-04T01:54:50;97077.44;;;4.01;100.00
54038;BME280;39954;48.844;9.726;2024-02-04T01:55:54;97080.06;;;3.98;100.00
54038;BME280;39954;48.844;9.726;2024-02-04T01:56:59;97080.03;;;3.99;100.00
54038;BME280;39954;48.844;9.726;2024-02-04T01:58:03;97075.75;;;3.98;100.00
54038;BME280;39954;48.844;9.726;2024-02-04T01:59:11;97067.16;;;4.01;100.00
54038;BME280;39954;48.844;9.726;2024-02-04T02:00:15;97070.53;;;4.04;100.00
54038;BME280;39954;48.844;9.726;2024-02-04T02:01:21;97063.59;;;4.08;100.00
54038;BME280;39954;48.844;9.726;2024-02-04T02:02:25;97060.16;;;4.09;100.00
54038;BME280;39954;48.844;9.726;2024-02-04T02:03:31;97055.84;;;4.11;100.00
54038;BME280;39954;48.844;9.726;2024-02-04T02:04:33;97053.25;;;4.11;100.00
54038;BME280;39954;48.844;9.726;2024-02-04T02:05:39;97050.72;;;4.10;100.00
54038;BME280;39954;48.844;9.726;2024-02-04T02:06:42;97047.31;;;4.09;100.00
54038;BME280;39954;48.844;9.726;2024-02-04T02:07:47;97049.06;;;4.07;100.00
54038;BME280;39954;48.844;9.726;2024-02-04T02:08:55;97047.34;;;4.06;100.00
54038;BME280;39954;48.844;9.726;2024-02-04T02:10:03;97050.78;;;4.05;100.00
54038;BME280;39954;48.844;9.726;2024-02-04T02:11:18;97053.34;;;4.07;100.00
54038;BME280;39954;48.844;9.726;2024-02-04T02:12:27;97061.88;;;4.09;100.00
54038;BME280;39954;48.844;9.726;2024-02-04T02:13:34;97067.00;;;4.09;100.00
54038;BME280;39954;48.844;9.726;2024-02-04T02:14:45;97061.84;;;4.12;100.00
54038;BME280;39954;48.844;9.726;2024-02-04T02:15:52;97074.72;;;4.10;100.00
54038;BME280;39954;48.844;9.726;2024-02-04T02:16:57;97070.41;;;4.12;100.00
54038;BME280;39954;48.844;9.726;2024-02-04T02:18:11;97064.44;;;4.09;100.00
54038;BME280;39954;48.844;9.726;2024-02-04T02:19:32;97069.63;;;4.07;100.00
54038;BME280;39954;48.844;9.726;2024-02-04T02:20:55;97072.16;;;4.12;100.00
54038;BME280;39954;48.844;9.726;2024-02-04T02:22:06;97058.41;;;4.13;100.00
54038;BME280;39954;48.844;9.726;2024-02-04T02:23:22;97057.56;;;4.11;100.00
54038;BME280;39954;48.844;9.726;2024-02-04T02:24:32;97047.22;;;4.15;100.00
54038;BME280;39954;48.844;9.726;2024-02-04T02:25:38;97052.34;;;4.15;100.00
54038;BME280;39954;48.844;9.726;2024-02-04T02:26:40;97053.19;;;4.17;100.00
54038;BME280;39954;48.844;9.726;2024-02-04T02:27:49;97064.31;;;4.16;100.00
54038;BME280;39954;48.844;9.726;2024-02-04T02:28:51;97070.31;;;4.18;100.00
54038;BME280;39954;48.844;9.726;2024-02-04T02:29:56;97074.69;;;4.13;100.00
54038;BME280;39954;48.844;9.726;2024-02-04T02:30:58;97073.78;;;4.14;100.00
54038;BME280;39954;48.844;9.726;2024-02-04T02:32:08;97070.31;;;4.17;100.00
54038;BME280;39954;48.844;9.726;2024-02-04T02:33:10;97077.22;;;4.15;100.00
54038;BME280;39954;48.844;9.726;2024-02-04T02:34:16;97069.53;;;4.15;100.00
54038;BME280;39954;48.844;9.726;2024-02-04T02:35:21;97075.50;;;4.15;100.00
54038;BME280;39954;48.844;9.726;2024-02-04T02:36:24;97068.56;;;4.20;100.00
54038;BME280;39954;48.844;9.726;2024-02-04T02:37:36;97065.06;;;4.26;100.00
54038;BME280;39954;48.844;9.726;2024-02-04T02:38:46;97059.84;;;4.28;100.00
54038;BME280;39954;48.844;9.726;2024-02-04T02:40:01;97067.56;;;4.28;100.00
54038;BME280;39954;48.844;9.726;2024-02-04T02:41:10;97065.06;;;4.26;100.00
54038;BME280;39954;48.844;9.726;2024-02-04T02:42:18;97060.81;;;4.23;100.00
54038;BME280;39954;48.844;9.726;2024-02-04T02:43:23;97058.22;;;4.23;100.00
54038;BME280;39954;48.844;9.726;2024-02-04T02:44:28;97054.81;;;4.23;100.00
54038;BME280;39954;48.844;9.726;2024-02-04T02:45:31;97053.94;;;4.22;100.00
54038;BME280;39954;48.844;9.726;2024-02-04T02:46:36;97050.47;;;4.25;100.00
54038;BME280;39954;48.844;9.726;2024-02-04T02:47:39;97051.34;;;4.22;100.00
54038;BME280;39954;48.844;9.726;2024-02-04T02:48:45;97055.72;;;4.20;100.00
54038;BME280;39954;48.844;9.726;2024-02-04T02:49:48;97059.09;;;4.22;100.00
54038;BME280;39954;48.844;9.726;2024-02-04T02:50:56;97057.28;;;4.28;100.00
54038;BME280;39954;48.844;9.726;2024-02-04T02:52:00;97058.16;;;4.26;100.00
54038;BME280;39954;48.844;9.726;2024-02-04T02:53:04;97057.28;;;4.28;100.00
54038;BME280;39954;48.844;9.726;2024-02-04T02:54:07;97053.88;;;4.25;100.00
54038;BME280;39954;48.844;9.726;2024-02-04T02:55:14;97054.75;;;4.26;100.00
54038;BME280;39954;48.844;9.726;2024-02-04T02:56:17;97052.13;;;4.28;100.00
54038;BME280;39954;48.844;9.726;2024-02-04T02:57:21;97057.28;;;4.28;100.00
54038;BME280;39954;48.844;9.726;2024-02-04T02:58:24;97045.34;;;4.23;100.00
54038;BME280;39954;48.844;9.726;2024-02-04T02:59:26;97044.41;;;4.29;100.00
54038;BME280;39954;48.844;9.726;2024-02-04T03:00:31;97046.94;;;4.31;100.00
54038;BME280;39954;48.844;9.726;2024-02-04T03:01:33;97047.78;;;4.33;100.00
54038;BME280;39954;48.844;9.726;2024-02-04T03:02:38;97058.84;;;4.38;100.00
54038;BME280;39954;48.844;9.726;2024-02-04T03:03:40;97053.75;;;4.35;100.00
54038;BME280;39954;48.844;9.726;2024-02-04T03:04:45;97043.50;;;4.32;100.00
54038;BME280;39954;48.844;9.726;2024-02-04T03:05:47;97047.84;;;4.28;100.00
54038;BME280;39954;48.844;9.726;2024-02-04T03:06:52;97052.03;;;4.34;100.00
54038;BME280;39954;48.844;9.726;2024-02-04T03:07:54;97057.13;;;4.37;100.00
54038;BME280;39954;48.844;9.726;2024-02-04T03:08:59;97050.34;;;4.33;100.00
54038;BME280;39954;48.844;9.726;2024-02-04T03:10:01;97048.66;;;4.32;100.00
54038;BME280;39954;48.844;9.726;2024-02-04T03:11:07;97052.97;;;4.30;100.00
54038;BME280;39954;48.844;9.726;2024-02-04T03:12:12;97045.19;;;4.33;100.00
54038;BME280;39954;48.844;9.726;2024-02-04T03:13:14;97046.13;;;4.29;100.00
54038;BME280;39954;48.844;9.726;2024-02-04T03:14:20;97056.38;;;4.30;100.00
54038;BME280;39954;48.844;9.726;2024-02-04T03:15:22;97039.25;;;4.29;100.00
54038;BME280;39954;48.844;9.726;2024-02-04T03:16:27;97048.72;;;4.29;100.00
54038;BME280;39954;48.844;9.726;2024-02-04T03:17:30;97047.00;;;4.28;100.00
54038;BME280;39954;48.844;9.726;2024-02-04T03:18:34;97043.59;;;4.25;100.00
54038;BME280;39954;48.844;9.726;2024-02-04T03:19:37;97037.66;;;4.23;100.00
54038;BME280;39954;48.844;9.726;2024-02-04T03:20:42;97041.00;;;4.27;100.00
54038;BME280;39954;48.844;9.726;2024-02-04T03:21:44;97041.00;;;4.25;100.00
54038;BME280;39954;48.844;9.726;2024-02-04T03:22:49;97042.69;;;4.30;100.00
54038;BME280;39954;48.844;9.726;2024-02-04T03:23:51;97041.78;;;4.31;100.00
54038;BME280;39954;48.844;9.726;2024-02-04T03:24:56;97043.56;;;4.29;100.00
54038;BME280;39954;48.844;9.726;2024-02-04T03:25:58;97040.22;;;4.23;100.00
54038;BME280;39954;48.844;9.726;2024-02-04T03:27:05;97041.84;;;4.28;100.00
54038;BME280;39954;48.844;9.726;2024-02-04T03:28:08;97041.13;;;4.21;100.00
54038;BME280;39954;48.844;9.726;2024-02-04T03:29:12;97045.41;;;4.20;100.00
54038;BME280;39954;48.844;9.726;2024-02-04T03:30:15;97041.94;;;4.23;100.00
54038;BME280;39954;48.844;9.726;2024-02-04T03:31:20;97045.41;;;4.20;100.00
54038;BME280;39954;48.844;9.726;2024-02-04T03:32:23;97042.84;;;4.19;100.00
54038;BME280;39954;48.844;9.726;2024-02-04T03:33:28;97042.03;;;4.17;100.00
54038;BME280;39954;48.844;9.726;2024-02-04T03:34:30;97036.03;;;4.18;100.00
54038;BME280;39954;48.844;9.726;2024-02-04T03:35:35;97042.00;;;4.18;100.00
54038;BME280;39954;48.844;9.726;2024-02-04T03:36:39;97039.41;;;4.20;100.00
54038;BME280;39954;48.844;9.726;2024-02-04T03:37:44;97035.13;;;4.20;100.00
54038;BME280;39954;48.844;9.726;2024-02-04T03:38:46;97040.31;;;4.17;100.00
54038;BME280;39954;48.844;9.726;2024-02-04T03:39:53;97042.84;;;4.19;100.00
54038;BME280;39954;48.844;9.726;2024-02-04T03:40:55;97046.25;;;4.21;100.00
54038;BME280;39954;48.844;9.726;2024-02-04T03:42:00;97044.53;;;4.21;100.00
54038;BME280;39954;48.844;9.726;2024-02-04T03:43:07;97047.16;;;4.18;100.00
54038;BME280;39954;48.844;9.726;2024-02-04T03:44:10;97051.41;;;4.21;100.00
54038;BME280;39954;48.844;9.726;2024-02-04T03:45:15;97045.47;;;4.17;100.00
54038;BME280;39954;48.844;9.726;2024-02-04T03:46:17;97046.31;;;4.18;100.00
54038;BME280;39954;48.844;9.726;2024-02-04T03:47:22;97047.22;;;4.15;100.00
54038;BME280;39954;48.844;9.726;2024-02-04T03:48:24;97038.66;;;4.15;100.00
54038;BME280;39954;48.844;9.726;2024-02-04T03:49:29;97033.50;;;4.15;100.00
54038;BME280;39954;48.844;9.726;2024-02-04T03:50:31;97041.22;;;4.15;100.00
54038;BME280;39954;48.844;9.726;2024-02-04T03:51:36;97046.28;;;4.19;100.00
54038;BME280;39954;48.844;9.726;2024-02-04T03:52:38;97058.34;;;4.17;100.00
54038;BME280;39954;48.844;9.726;2024-02-04T03:53:45;97055.75;;;4.17;100.00
54038;BME280;39954;48.844;9.726;2024-02-04T03:54:47;97057.41;;;4.21;100.00
54038;BME280;39954;48.844;9.726;2024-02-04T03:55:52;97050.63;;;4.17;100.00
54038;BME280;39954;48.844;9.726;2024-02-04T03:56:54;97041.22;;;4.13;100.00
54038;BME280;39954;48.844;9.726;2024-02-04T03:57:59;97044.69;;;4.12;100.00
54038;BME280;39954;48.844;9.726;2024-02-04T03:59:04;97044.69;;;4.11;100.00
54038;BME280;39954;48.844;9.726;2024-02-04T04:00:10;97042.13;;;4.12;100.00
54038;BME280;39954;48.844;9.726;2024-02-04T04:01:13;97042.16;;;4.09;100.00
54038;BME280;39954;48.844;9.726;2024-02-04T04:02:18;97045.53;;;4.11;100.00
54038;BME280;39954;48.844;9.726;2024-02-04T04:03:20;97045.53;;;4.11;100.00
54038;BME280;39954;48.844;9.726;2024-02-04T04:04:25;97039.56;;;4.11;100.00
54038;BME280;39954;48.844;9.726;2024-02-04T04:05:28;97036.97;;;4.12;100.00
54038;BME280;39954;48.844;9.726;2024-02-04T04:06:34;97036.94;;;4.14;100.00
54038;BME280;39954;48.844;9.726;2024-02-04T04:07:36;97034.41;;;4.11;100.00
54038;BME280;39954;48.844;9.726;2024-02-04T04:08:41;97038.75;;;4.07;100.00
54038;BME280;39954;48.844;9.726;2024-02-04T04:09:43;97031.06;;;4.06;100.00
54038;BME280;39954;48.844;9.726;2024-02-04T04:10:48;97042.13;;;4.12;100.00
54038;BME280;39954;48.844;9.726;2024-02-04T04:11:50;97038.66;;;4.13;100.00
54038;BME280;39954;48.844;9.726;2024-02-04T04:12:55;97048.94;;;4.13;100.00
54038;BME280;39954;48.844;9.726;2024-02-04T04:13:57;97046.41;;;4.12;100.00
54038;BME280;39954;48.844;9.726;2024-02-04T04:15:07;97050.75;;;4.08;100.00
54038;BME280;39954;48.844;9.726;2024-02-04T04:16:10;97045.59;;;4.08;100.00
54038;BME280;39954;48.844;9.726;2024-02-04T04:17:15;97045.53;;;4.13;100.00
54038;BME280;39954;48.844;9.726;2024-02-04T04:18:17;97046.44;;;4.10;100.00
54038;BME280;39954;48.844;9.726;2024-02-04T04:19:22;97037.94;;;4.05;100.00
54038;BME280;39954;48.844;9.726;2024-02-04T04:20:24;97034.50;;;4.04;100.00
54038;BME280;39954;48.844;9.726;2024-02-04T04:21:29;97033.56;;;4.09;100.00
54038;BME280;39954;48.844;9.726;2024-02-04T04:22:31;97034.47;;;4.08;100.00
54038;BME280;39954;48.844;9.726;2024-02-04T04:23:36;97032.78;;;4.05;100.00
54038;BME280;39954;48.844;9.726;2024-02-04T04:24:39;97035.19;;;4.14;100.00
54038;BME280;39954;48.844;9.726;2024-02-04T04:25:43;97030.09;;;4.11;100.00
54038;BME280;39954;48.844;9.726;2024-02-04T04:26:46;97029.22;;;4.14;100.00
54038;BME280;39954;48.844;9.726;2024-02-04T04:27:50;97030.03;;;4.17;100.00
54038;BME280;39954;48.844;9.726;2024-02-04T04:28:53;97036.94;;;4.14;100.00
54038;BME280;39954;48.844;9.726;2024-02-04T04:29:58;97042.91;;;4.17;100.00
54038;BME280;39954;48.844;9.726;2024-02-04T04:31:03;97042.97;;;4.13;100.00
54038;BME280;39954;48.844;9.726;2024-02-04T04:32:08;97045.53;;;4.11;100.00
54038;BME280;39954;48.844;9.726;2024-02-04T04:33:10;97053.22;;;4.14;100.00
54038;BME280;39954;48.844;9.726;2024-02-04T04:34:16;97051.56;;;4.10;100.00
54038;BME280;39954;48.844;9.726;2024-02-04T04:35:20;97057.50;;;4.15;100.00
54038;BME280;39954;48.844;9.726;2024-02-04T04:36:25;97059.19;;;4.18;100.00
54038;BME280;39954;48.844;9.726;2024-02-04T04:37:30;97054.03;;;4.18;100.00
54038;BME280;39954;48.844;9.726;2024-02-04T04:38:32;97061.69;;;4.19;100.00
54038;BME280;39954;48.844;9.726;2024-02-04T04:39:37;97051.28;;;4.27;100.00
54038;BME280;39954;48.844;9.726;2024-02-04T04:40:39;97057.44;;;4.18;100.00
54038;BME280;39954;48.844;9.726;2024-02-04T04:41:45;97050.63;;;4.17;100.00
54038;BME280;39954;48.844;9.726;2024-02-04T04:42:47;97055.78;;;4.16;100.00
54038;BME280;39954;48.844;9.726;2024-02-04T04:43:52;97055.75;;;4.17;100.00
54038;BME280;39954;48.844;9.726;2024-02-04T04:44:54;97053.19;;;4.17;100.00
54038;BME280;39954;48.844;9.726;2024-02-04T04:46:03;97057.44;;;4.18;100.00
54038;BME280;39954;48.844;9.726;2024-02-04T04:47:06;97058.34;;;4.16;100.00
54038;BME280;39954;48.844;9.726;2024-02-04T04:48:11;97067.78;;;4.15;100.00
54038;BME280;39954;48.844;9.726;2024-02-04T04:49:14;97054.94;;;4.14;100.00
54038;BME280;39954;48.844;9.726;2024-02-04T04:50:19;97047.25;;;4.12;100.00
54038;BME280;39954;48.844;9.726;2024-02-04T04:51:21;97045.50;;;4.14;100.00
54038;BME280;39954;48.844;9.726;2024-02-04T04:52:26;97047.16;;;4.17;100.00
54038;BME280;39954;48.844;9.726;2024-02-04T04:53:28;97052.31;;;4.18;100.00
54038;BME280;39954;48.844;9.726;2024-02-04T04:54:33;97043.75;;;4.16;100.00
54038;BME280;39954;48.844;9.726;2024-02-04T04:55:36;97047.16;;;4.18;100.00
54038;BME280;39954;48.844;9.726;2024-02-04T04:56:41;97043.69;;;4.19;100.00
54038;BME280;39954;48.844;9.726;2024-02-04T04:57:44;97040.28;;;4.20;100.00
54038;BME280;39954;48.844;9.726;2024-02-04T04:58:49;97039.38;;;4.23;100.00
54038;BME280;39954;48.844;9.726;2024-02-04T04:59:51;97045.41;;;4.20;100.00
54038;BME280;39954;48.844;9.726;2024-02-04T05:00:56;97051.34;;;4.22;100.00
54038;BME280;39954;48.844;9.726;2024-02-04T05:02:01;97046.25;;;4.21;100.00
54038;BME280;39954;48.844;9.726;2024-02-04T05:03:06;97047.88;;;4.26;100.00
54038;BME280;39954;48.844;9.726;2024-02-04T05:04:08;97044.47;;;4.24;100.00
54038;BME280;39954;48.844;9.726;2024-02-04T05:05:13;97051.31;;;4.25;100.00
54038;BME280;39954;48.844;9.726;2024-02-04T05:06:16;97039.41;;;4.20;100.00
54038;BME280;39954;48.844;9.726;2024-02-04T05:07:21;97041.91;;;4.24;100.00
54038;BME280;39954;48.844;9.726;2024-02-04T05:08:23;97047.09;;;4.21;100.00
54038;BME280;39954;48.844;9.726;2024-02-04T05:09:28;97049.69;;;4.20;100.00
54038;BME280;39954;48.844;9.726;2024-02-04T05:10:30;97045.41;;;4.20;100.00
54038;BME280;39954;48.844;9.726;2024-02-04T05:11:35;97048.88;;;4.18;100.00
54038;BME280;39954;48.844;9.726;2024-02-04T05:12:37;97050.50;;;4.23;100.00
54038;BME280;39954;48.844;9.726;2024-02-04T05:13:42;97045.41;;;4.20;100.00
54038;BME280;39954;48.844;9.726;2024-02-04T05:14:45;97050.63;;;4.17;100.00
54038;BME280;39954;48.844;9.726;2024-02-04T05:15:49;97042.06;;;4.14;100.00
54038;BME280;39954;48.844;9.726;2024-02-04T05:16:52;97039.50;;;4.14;100.00
54038;BME280;39954;48.844;9.726;2024-02-04T05:17:59;97044.59;;;4.17;100.00
54038;BME280;39954;48.844;9.726;2024-02-04T05:19:01;97042.06;;;4.14;100.00
54038;BME280;39954;48.844;9.726;2024-02-04T05:20:07;97043.69;;;4.19;100.00
54038;BME280;39954;48.844;9.726;2024-02-04T05:21:10;97046.28;;;4.19;100.00
54038;BME280;39954;48.844;9.726;2024-02-04T05:22:15;97051.34;;;4.22;100.00
54038;BME280;39954;48.844;9.726;2024-02-04T05:23:17;97048.84;;;4.19;100.00
54038;BME280;39954;48.844;9.726;2024-02-04T05:24:22;97050.50;;;4.23;100.00
54038;BME280;39954;48.844;9.726;2024-02-04T05:25:24;97044.59;;;4.18;100.00
54038;BME280;39954;48.844;9.726;2024-02-04T05:26:29;97055.66;;;4.23;100.00
54038;BME280;39954;48.844;9.726;2024-02-04T05:27:32;97050.50;;;4.23;100.00
54038;BME280;39954;48.844;9.726;2024-02-04T05:28:40;97050.44;;;4.26;100.00
54038;BME280;39954;48.844;9.726;2024-02-04T05:29:42;97048.72;;;4.27;100.00
54038;BME280;39954;48.844;9.726;2024-02-04T05:30:45;97045.38;;;4.22;100.00
54038;BME280;39954;48.844;9.726;2024-02-04T05:31:51;97036.91;;;4.15;100.00
54038;BME280;39954;48.844;9.726;2024-02-04T05:32:53;97041.16;;;4.18;100.00
54038;BME280;39954;48.844;9.726;2024-02-04T05:34:05;97039.38;;;4.21;100.00
54038;BME280;39954;48.844;9.726;2024-02-04T05:35:09;97044.59;;;4.17;100.00
54038;BME280;39954;48.844;9.726;2024-02-04T05:36:15;97043.78;;;4.15;100.00
54038;BME280;39954;48.844;9.726;2024-02-04T05:37:17;97042.84;;;4.20;100.00
54038;BME280;39954;48.844;9.726;2024-02-04T05:38:22;97041.13;;;4.21;100.00
54038;BME280;39954;48.844;9.726;2024-02-04T05:39:24;97027.47;;;4.16;100.00
54038;BME280;39954;48.844;9.726;2024-02-04T05:40:26;97034.28;;;4.18;100.00
54038;BME280;39954;48.844;9.726;2024-02-04T05:41:34;97043.69;;;4.19;100.00